Terminal Aerodrome Forecast
Issued by NWS Cleveland, OH

Home | Current Version | Previous Version | Graphics & Text | Print | Product List | Glossary On
Versions: 1 2 3 4 5 6 7 8 9 10 11 12 13 14 15 16 17 18 19
000
FTUS41 KCLE 171300 AAA
TAFYNG
TAF AMD
KYNG 171300Z 1713/1812 25005KT P6SM OVC007
     FM171500 25005KT P6SM OVC015
     FM171700 28006KT P6SM BKN022
     FM172100 30006KT P6SM SCT022
     FM180100 VRB03KT P6SM SKC=

USA.gov is the U.S. government's official web portal to all federal, state and local government web resources and services.